• Join FlightAware (Why Join?)
  • Login
  • US Flag 
08:55AM EDT


 

Airport Tracker/Info


-or-


 

Live Flight TrackerFlight Track Log ✈ AAL1242 ✈ 14-Apr-2013 ✈ KDEN - KDFW

Flight Track Log - Related Links

Times and Time Zones

All times are in EDT time to prevent confusion due to time zone crossing. See the AAL1242 flight status page for this flight to view local times or setup timezone preferences in your user account.

Time Position Orientation Groundspeed Altitude Reporting Facility
EDT Latitude Longitude Course Direction KTS MPH feet Rate Location/Type
05:36PM 39.8333 -104.7500 169° South 200 230 7,000  Level Denver TRACON
05:37PM 39.7667 -104.7833 201° Southwest 256 295 8,800 1,380 Climbing Denver TRACON
05:38PM 39.6680 -104.3792 205° Southwest  Level FlightAware Approximate
05:38PM 39.7000 -104.7500 159° South 281 323 9,800  Level Denver TRACON
05:39PM 39.5610 -104.4538 207° Southwest  Level FlightAware Approximate
05:39PM 39.6167 -104.7000 155° Southeast 294 338 12,000  Level Denver TRACON
05:40PM 39.4472 -104.5000 180° South  Level FlightAware Approximate
05:40PM 39.5389 -104.6628 160° South 299 344 14,600  Level Denver Center
05:41PM 39.3257 -104.4981 169° South  Level FlightAware Approximate
05:41PM 39.4481 -104.6172 159° South 323 372 16,900  Level Denver Center
05:42PM 39.3547 -104.5708 159° South 358 412 18,700 1,560 Climbing Denver Center
05:43PM 39.2528 -104.5200 159° South 396 456 20,200 1,500 Climbing Denver Center
05:44PM 39.1350 -104.4622 159° South 415 478 21,800 1,320 Climbing Denver Center
05:45PM 39.0250 -104.4297 167° South 416 479 23,000 1,500 Climbing Denver Center
05:46PM 38.8900 -104.3936 168° South 439 505 25,000 1,740 Climbing Denver Center
05:47PM 38.7803 -104.3336 157° South 459 528 26,700 1,500 Climbing Denver Center
05:48PM 38.6653 -104.2450 149° Southeast 483 556 28,100 1,320 Climbing Denver Center
05:49PM 38.5472 -104.1203 140° Southeast 497 572 29,500 1,260 Climbing Denver Center
05:50PM 38.4436 -104.0106 140° Southeast 502 578 30,800 720 Climbing Denver Center
05:51PM 38.3214 -103.8853 141° Southeast 503 579 31,000 60 Climbing Denver Center
05:52PM 38.2183 -103.7769 140° Southeast 501 577 31,000  Level Denver Center
05:53PM 38.0983 -103.6550 141° Southeast 493 567 31,000  Level Denver Center
05:54PM 37.9947 -103.5475 141° Southeast 497 572 31,000  Level Denver Center
05:55PM 37.8914 -103.4394 140° Southeast 499 574 31,000  Level Denver Center
05:56PM 37.7692 -103.3158 141° Southeast 500 575 31,000  Level Denver Center
05:57PM 37.6644 -103.2078 141° Southeast 504 580 31,000  Level Denver Center
05:58PM 37.5439 -103.0864 141° Southeast 496 571 31,000  Level Denver Center
05:59PM 37.4428 -102.9842 141° Southeast 487 560 31,000  Level Denver Center
06:00PM 37.3397 -102.8803 141° Southeast 492 566 31,000  Level Denver Center
06:01PM 37.2722 -102.8117 141° Southeast 492 566 31,000  Level Albuquerque Center
06:02PM 37.1686 -102.7081 141° Southeast 496 571 31,000  Level Albuquerque Center
06:03PM 37.0486 -102.5903 142° Southeast 491 565 31,000  Level Albuquerque Center
06:04PM 36.9364 -102.4783 141° Southeast 489 563 31,000  Level Albuquerque Center
06:05PM 36.8442 -102.3872 142° Southeast 487 560 31,000  Level Albuquerque Center
06:06PM 36.7472 -102.2664 135° Southeast 500 575 31,000  Level Albuquerque Center
06:07PM 36.6475 -102.1128 129° Southeast 499 574 31,000  Level Albuquerque Center
06:08PM 36.5550 -101.9767 130° Southeast 496 571 31,000  Level Albuquerque Center
06:09PM 36.4667 -101.8472 130° Southeast 493 567 31,000  Level Albuquerque Center
06:10PM 36.3775 -101.7169 130° Southeast 493 567 31,000  Level Albuquerque Center
06:11PM 36.2889 -101.5906 131° Southeast 489 563 31,000  Level Albuquerque Center
06:12PM 36.2006 -101.4617 130° Southeast 488 562 31,000  Level Albuquerque Center
06:13PM 36.1119 -101.3356 131° Southeast 486 559 31,000  Level Albuquerque Center
06:14PM 36.0161 -101.1969 130° Southeast 488 562 31,000  Level Albuquerque Center
06:15PM 35.9142 -101.0536 131° Southeast 492 566 31,000  Level Albuquerque Center
06:16PM 35.8372 -100.9428 131° Southeast 488 562 31,000  Level Albuquerque Center
06:17PM 35.7483 -100.8175 131° Southeast 487 560 31,000  Level Albuquerque Center
06:18PM 35.6472 -100.6736 131° Southeast 489 563 31,000  Level Albuquerque Center
06:19PM 35.5528 -100.5403 131° Southeast 487 560 31,000  Level Albuquerque Center
06:20PM 35.4642 -100.4161 131° Southeast 485 558 31,000  Level Albuquerque Center
06:22PM 35.3750 -100.2908 131° Southeast 487 560 31,000  Level Albuquerque Center
06:23PM 35.2858 -100.1672 131° Southeast 487 560 31,000  Level Albuquerque Center
06:24PM 35.1939 -100.0419 132° Southeast 491 565 31,000  Level Albuquerque Center
06:25PM 35.1047 -99.9158 131° Southeast 492 566 31,000  Level Albuquerque Center
06:26PM 34.9950 -99.7672 132° Southeast 491 565 31,000  Level Albuquerque Center
06:27PM 34.9039 -99.6414 131° Southeast 494 568 31,000  Level Albuquerque Center
06:27PM 34.8617 -99.5872 134° Southeast 489 563 31,000  Level Fort Worth Center
06:28PM 34.7719 -99.4636 131° Southeast 489 563 31,000  Level Fort Worth Center
06:29PM 34.6800 -99.3378 132° Southeast 495 570 31,000  Level Fort Worth Center
06:30PM 34.5881 -99.2169 133° Southeast 495 570 31,000  Level Fort Worth Center
06:31PM 34.4978 -99.0967 132° Southeast 489 563 31,000  Level Fort Worth Center
06:32PM 34.4056 -98.9717 132° Southeast 489 563 31,000 -60 Level Fort Worth Center
06:33PM 34.3153 -98.8542 133° Southeast 484 557 30,900 -1,200 Descending Fort Worth Center
06:34PM 34.2269 -98.7347 132° Southeast 477 549 28,700 -2,160 Descending Fort Worth Center
06:35PM 34.1383 -98.6156 132° Southeast 471 542 26,600 -2,100 Descending Fort Worth Center
06:36PM 34.0414 -98.4914 133° Southeast 471 542 24,600 -1,860 Descending Fort Worth Center
06:37PM 33.9692 -98.3928 131° Southeast 455 524 22,900 -1,860 Descending Fort Worth Center
06:38PM 33.8864 -98.2867 133° Southeast 440 506 20,900 -2,100 Descending Fort Worth Center
06:39PM 33.8058 -98.1808 132° Southeast 427 491 18,800 -2,340 Descending Fort Worth Center
06:40PM 33.7269 -98.0803 133° Southeast 421 484 16,300 -2,340 Descending Fort Worth Center
06:41PM 33.6503 -97.9800 133° Southeast 414 476 14,200 -2,160 Descending Fort Worth Center
06:42PM 33.5611 -97.8722 135° Southeast 408 470 12,000 -1,560 Descending Fort Worth Center
06:43PM 33.4944 -97.7872 133° Southeast 403 464 11,100 -540 Descending Fort Worth Center
06:44PM 33.4197 -97.6897 133° Southeast 377 434 11,000 -60 Descending Fort Worth Center
06:45PM 33.3633 -97.6200 134° Southeast 336 387 11,000 -240 Level Fort Worth Center
06:46PM 33.2989 -97.5453 136° Southeast 321 369 10,600 -780 Descending Fort Worth Center
06:47PM 33.2319 -97.4606 133° Southeast 314 361 9,500 -1,200 Descending Fort Worth Center
06:48PM 33.2153 -97.3711 103° East 301 346 8,200 -1,440 Descending Fort Worth Center
06:49PM 33.1903 -97.2594 105° East 301 346 6,700 -1,200 Descending Fort Worth Center
06:50PM 33.1733 -97.1803 104° East 289 333 5,900 -840 Descending Fort Worth Center
06:51PM 33.1522 -97.0883 105° East 262 302 5,100 -900 Descending Fort Worth Center
06:52PM 33.1125 -97.0514 142° Southeast 212 244 4,200 -900 Descending Fort Worth Center
06:53PM 33.0561 -97.0564 184° South 175 201 3,300 -960 Descending Fort Worth Center
06:53PM 33.0500 -97.0500 139° Southeast 166 191 3,000 -960 Descending Dallas / Fort Worth TRACON